sensor_id;sensor_type;location;lat;lon;timestamp;temperature;humidity
7232;DHT22;3657;49.630;11.018;2023-06-10T00:01:52;21.00;67.80
7232;DHT22;3657;49.630;11.018;2023-06-10T00:04:21;20.90;67.70
7232;DHT22;3657;49.630;11.018;2023-06-10T00:06:47;20.90;67.80
7232;DHT22;3657;49.630;11.018;2023-06-10T00:09:16;20.90;67.90
7232;DHT22;3657;49.630;11.018;2023-06-10T00:11:44;20.90;68.00
7232;DHT22;3657;49.630;11.018;2023-06-10T00:14:11;20.80;67.90
7232;DHT22;3657;49.630;11.018;2023-06-10T00:16:37;20.80;68.10
7232;DHT22;3657;49.630;11.018;2023-06-10T00:19:05;20.80;68.20
7232;DHT22;3657;49.630;11.018;2023-06-10T00:21:33;20.70;68.10
7232;DHT22;3657;49.630;11.018;2023-06-10T00:24:03;20.70;68.20
7232;DHT22;3657;49.630;11.018;2023-06-10T00:26:32;20.70;68.30
7232;DHT22;3657;49.630;11.018;2023-06-10T00:28:59;20.60;68.20
7232;DHT22;3657;49.630;11.018;2023-06-10T00:31:25;20.60;68.30
7232;DHT22;3657;49.630;11.018;2023-06-10T00:33:52;20.60;68.40
7232;DHT22;3657;49.630;11.018;2023-06-10T00:36:19;20.60;68.40
7232;DHT22;3657;49.630;11.018;2023-06-10T00:38:46;20.50;68.40
7232;DHT22;3657;49.630;11.018;2023-06-10T00:41:13;20.40;68.30
7232;DHT22;3657;49.630;11.018;2023-06-10T00:43:41;20.40;68.40
7232;DHT22;3657;49.630;11.018;2023-06-10T00:46:08;20.40;68.40
7232;DHT22;3657;49.630;11.018;2023-06-10T00:48:34;20.40;68.50
7232;DHT22;3657;49.630;11.018;2023-06-10T00:51:01;20.30;68.40
7232;DHT22;3657;49.630;11.018;2023-06-10T00:53:28;20.30;68.50
7232;DHT22;3657;49.630;11.018;2023-06-10T00:55:55;20.30;68.50
7232;DHT22;3657;49.630;11.018;2023-06-10T00:58:23;20.30;68.50
7232;DHT22;3657;49.630;11.018;2023-06-10T01:00:51;20.20;68.40
7232;DHT22;3657;49.630;11.018;2023-06-10T01:03:19;20.20;68.50
7232;DHT22;3657;49.630;11.018;2023-06-10T01:05:50;20.20;68.60
7232;DHT22;3657;49.630;11.018;2023-06-10T01:08:31;20.20;68.70
7232;DHT22;3657;49.630;11.018;2023-06-10T01:11:00;20.10;68.60
7232;DHT22;3657;49.630;11.018;2023-06-10T01:13:29;20.10;68.60
7232;DHT22;3657;49.630;11.018;2023-06-10T01:15:59;20.00;68.60
7232;DHT22;3657;49.630;11.018;2023-06-10T01:18:30;20.00;68.70
7232;DHT22;3657;49.630;11.018;2023-06-10T01:20:56;19.90;68.60
7232;DHT22;3657;49.630;11.018;2023-06-10T01:23:24;20.00;68.80
7232;DHT22;3657;49.630;11.018;2023-06-10T01:25:55;19.90;68.90
7232;DHT22;3657;49.630;11.018;2023-06-10T01:28:29;19.90;69.50
7232;DHT22;3657;49.630;11.018;2023-06-10T01:31:02;19.80;68.80
7232;DHT22;3657;49.630;11.018;2023-06-10T01:33:35;19.80;69.00
7232;DHT22;3657;49.630;11.018;2023-06-10T01:36:03;19.80;69.00
7232;DHT22;3657;49.630;11.018;2023-06-10T01:38:35;19.70;68.80
7232;DHT22;3657;49.630;11.018;2023-06-10T01:41:03;19.70;69.00
7232;DHT22;3657;49.630;11.018;2023-06-10T01:43:33;19.70;69.00
7232;DHT22;3657;49.630;11.018;2023-06-10T01:46:00;19.70;69.10
7232;DHT22;3657;49.630;11.018;2023-06-10T01:48:26;19.60;69.10
7232;DHT22;3657;49.630;11.018;2023-06-10T01:50:53;19.60;69.20
7232;DHT22;3657;49.630;11.018;2023-06-10T01:53:21;19.60;69.20
7232;DHT22;3657;49.630;11.018;2023-06-10T01:55:49;19.50;69.20
7232;DHT22;3657;49.630;11.018;2023-06-10T01:58:16;19.50;69.20
7232;DHT22;3657;49.630;11.018;2023-06-10T02:00:42;19.50;69.30
7232;DHT22;3657;49.630;11.018;2023-06-10T02:03:09;19.40;69.40
7232;DHT22;3657;49.630;11.018;2023-06-10T02:05:36;19.40;69.40
7232;DHT22;3657;49.630;11.018;2023-06-10T02:08:03;19.40;69.40
7232;DHT22;3657;49.630;11.018;2023-06-10T02:10:29;19.40;69.60
7232;DHT22;3657;49.630;11.018;2023-06-10T02:12:58;19.30;69.60
7232;DHT22;3657;49.630;11.018;2023-06-10T02:15:25;19.30;69.60
7232;DHT22;3657;49.630;11.018;2023-06-10T02:17:52;19.30;69.60
7232;DHT22;3657;49.630;11.018;2023-06-10T02:20:20;19.20;69.50
7232;DHT22;3657;49.630;11.018;2023-06-10T02:22:46;19.20;69.50
7232;DHT22;3657;49.630;11.018;2023-06-10T02:25:13;19.20;69.60
7232;DHT22;3657;49.630;11.018;2023-06-10T02:27:40;19.20;69.70
7232;DHT22;3657;49.630;11.018;2023-06-10T02:30:09;19.10;69.50
7232;DHT22;3657;49.630;11.018;2023-06-10T02:32:36;19.10;69.70
7232;DHT22;3657;49.630;11.018;2023-06-10T02:35:03;19.10;69.60
7232;DHT22;3657;49.630;11.018;2023-06-10T02:37:30;19.10;69.60
7232;DHT22;3657;49.630;11.018;2023-06-10T02:39:57;19.00;69.60
7232;DHT22;3657;49.630;11.018;2023-06-10T02:42:24;19.00;69.70
7232;DHT22;3657;49.630;11.018;2023-06-10T02:44:50;19.00;69.60
7232;DHT22;3657;49.630;11.018;2023-06-10T02:47:18;19.00;69.70
7232;DHT22;3657;49.630;11.018;2023-06-10T02:49:45;18.90;69.70
7232;DHT22;3657;49.630;11.018;2023-06-10T02:52:12;18.90;69.70
7232;DHT22;3657;49.630;11.018;2023-06-10T02:54:38;18.90;69.70
7232;DHT22;3657;49.630;11.018;2023-06-10T02:57:05;18.90;69.70
7232;DHT22;3657;49.630;11.018;2023-06-10T02:59:33;18.80;69.70
7232;DHT22;3657;49.630;11.018;2023-06-10T03:02:00;18.80;69.70
7232;DHT22;3657;49.630;11.018;2023-06-10T03:04:29;18.80;69.80
7232;DHT22;3657;49.630;11.018;2023-06-10T03:06:56;18.70;69.70
7232;DHT22;3657;49.630;11.018;2023-06-10T03:09:22;18.70;69.80
7232;DHT22;3657;49.630;11.018;2023-06-10T03:11:49;18.70;69.80
7232;DHT22;3657;49.630;11.018;2023-06-10T03:14:16;18.60;69.80
7232;DHT22;3657;49.630;11.018;2023-06-10T03:16:42;18.60;69.80
7232;DHT22;3657;49.630;11.018;2023-06-10T03:19:10;18.60;69.90
7232;DHT22;3657;49.630;11.018;2023-06-10T03:21:38;18.60;69.90
7232;DHT22;3657;49.630;11.018;2023-06-10T03:24:07;18.60;69.90
7232;DHT22;3657;49.630;11.018;2023-06-10T03:26:33;18.60;70.00
7232;DHT22;3657;49.630;11.018;2023-06-10T03:29:00;18.50;69.80
7232;DHT22;3657;49.630;11.018;2023-06-10T03:31:27;18.50;69.90
7232;DHT22;3657;49.630;11.018;2023-06-10T03:33:53;18.50;69.90
7232;DHT22;3657;49.630;11.018;2023-06-10T03:36:20;18.50;70.00
7232;DHT22;3657;49.630;11.018;2023-06-10T03:38:48;18.40;70.00
7232;DHT22;3657;49.630;11.018;2023-06-10T03:41:17;18.50;70.20
7232;DHT22;3657;49.630;11.018;2023-06-10T03:43:43;18.40;70.00
7232;DHT22;3657;49.630;11.018;2023-06-10T03:46:10;18.40;70.00
7232;DHT22;3657;49.630;11.018;2023-06-10T03:48:37;18.40;70.10
7232;DHT22;3657;49.630;11.018;2023-06-10T03:51:04;18.40;70.20
7232;DHT22;3657;49.630;11.018;2023-06-10T03:53:30;18.40;70.10
7232;DHT22;3657;49.630;11.018;2023-06-10T03:55:59;18.30;70.10
7232;DHT22;3657;49.630;11.018;2023-06-10T03:58:26;18.30;70.10
7232;DHT22;3657;49.630;11.018;2023-06-10T04:00:52;18.30;70.20
7232;DHT22;3657;49.630;11.018;2023-06-10T04:03:20;18.30;70.30
7232;DHT22;3657;49.630;11.018;2023-06-10T04:05:48;18.30;70.20
7232;DHT22;3657;49.630;11.018;2023-06-10T04:08:15;18.30;70.30
7232;DHT22;3657;49.630;11.018;2023-06-10T04:10:42;18.20;70.20
7232;DHT22;3657;49.630;11.018;2023-06-10T04:13:10;18.20;70.30
7232;DHT22;3657;49.630;11.018;2023-06-10T04:15:36;18.20;70.40
7232;DHT22;3657;49.630;11.018;2023-06-10T04:18:04;18.20;70.50
7232;DHT22;3657;49.630;11.018;2023-06-10T04:20:31;18.20;70.50
7232;DHT22;3657;49.630;11.018;2023-06-10T04:22:58;18.20;70.50
7232;DHT22;3657;49.630;11.018;2023-06-10T04:25:25;18.20;70.40
7232;DHT22;3657;49.630;11.018;2023-06-10T04:27:52;18.20;70.50
7232;DHT22;3657;49.630;11.018;2023-06-10T04:30:20;18.20;70.40
7232;DHT22;3657;49.630;11.018;2023-06-10T04:32:47;18.10;70.40
7232;DHT22;3657;49.630;11.018;2023-06-10T04:35:15;18.10;70.40
7232;DHT22;3657;49.630;11.018;2023-06-10T04:37:42;18.20;70.40
7232;DHT22;3657;49.630;11.018;2023-06-10T04:40:09;18.20;70.50
7232;DHT22;3657;49.630;11.018;2023-06-10T04:42:36;18.20;70.50
7232;DHT22;3657;49.630;11.018;2023-06-10T04:45:03;18.20;70.40
7232;DHT22;3657;49.630;11.018;2023-06-10T04:47:31;18.20;70.40
7232;DHT22;3657;49.630;11.018;2023-06-10T04:49:59;18.20;70.40
7232;DHT22;3657;49.630;11.018;2023-06-10T04:52:26;18.20;70.50
7232;DHT22;3657;49.630;11.018;2023-06-10T04:54:53;18.20;70.40
7232;DHT22;3657;49.630;11.018;2023-06-10T04:57:20;18.20;73.20
7232;DHT22;3657;49.630;11.018;2023-06-10T04:59:47;18.20;71.00
7232;DHT22;3657;49.630;11.018;2023-06-10T05:02:13;18.20;72.80
7232;DHT22;3657;49.630;11.018;2023-06-10T05:04:41;18.10;74.90
7232;DHT22;3657;49.630;11.018;2023-06-10T05:07:08;17.80;77.70
7232;DHT22;3657;49.630;11.018;2023-06-10T05:09:35;17.90;72.80
7232;DHT22;3657;49.630;11.018;2023-06-10T05:12:03;18.00;72.50
7232;DHT22;3657;49.630;11.018;2023-06-10T05:14:29;18.10;74.70
7232;DHT22;3657;49.630;11.018;2023-06-10T05:16:56;18.10;74.90
7232;DHT22;3657;49.630;11.018;2023-06-10T05:19:23;17.90;79.90
7232;DHT22;3657;49.630;11.018;2023-06-10T05:21:52;17.90;77.60
7232;DHT22;3657;49.630;11.018;2023-06-10T05:24:18;17.80;79.10
7232;DHT22;3657;49.630;11.018;2023-06-10T05:26:45;18.00;81.30
7232;DHT22;3657;49.630;11.018;2023-06-10T05:29:14;18.10;76.60
7232;DHT22;3657;49.630;11.018;2023-06-10T05:31:40;18.20;79.10
7232;DHT22;3657;49.630;11.018;2023-06-10T05:34:07;18.40;80.20
7232;DHT22;3657;49.630;11.018;2023-06-10T05:36:34;18.40;82.00
7232;DHT22;3657;49.630;11.018;2023-06-10T05:39:02;18.60;81.00
7232;DHT22;3657;49.630;11.018;2023-06-10T05:41:29;18.70;81.90
7232;DHT22;3657;49.630;11.018;2023-06-10T05:43:56;18.90;76.80
7232;DHT22;3657;49.630;11.018;2023-06-10T05:46:22;19.20;78.60
7232;DHT22;3657;49.630;11.018;2023-06-10T05:48:49;19.40;74.50
7232;DHT22;3657;49.630;11.018;2023-06-10T05:51:16;19.40;80.90
7232;DHT22;3657;49.630;11.018;2023-06-10T05:53:42;19.70;77.70
7232;DHT22;3657;49.630;11.018;2023-06-10T05:56:13;20.00;76.30
7232;DHT22;3657;49.630;11.018;2023-06-10T05:58:39;20.10;77.90
7232;DHT22;3657;49.630;11.018;2023-06-10T06:01:06;20.50;77.80
7232;DHT22;3657;49.630;11.018;2023-06-10T06:03:33;20.70;74.50
7232;DHT22;3657;49.630;11.018;2023-06-10T06:05:59;21.10;72.00
7232;DHT22;3657;49.630;11.018;2023-06-10T06:08:26;21.30;72.30
7232;DHT22;3657;49.630;11.018;2023-06-10T06:10:53;21.60;71.70
7232;DHT22;3657;49.630;11.018;2023-06-10T06:13:21;21.80;71.70
7232;DHT22;3657;49.630;11.018;2023-06-10T06:15:48;21.80;76.60
7232;DHT22;3657;49.630;11.018;2023-06-10T06:18:15;22.00;76.60
7232;DHT22;3657;49.630;11.018;2023-06-10T06:20:41;22.30;73.60
7232;DHT22;3657;49.630;11.018;2023-06-10T06:23:08;22.50;75.20
7232;DHT22;3657;49.630;11.018;2023-06-10T06:25:35;22.70;73.70
7232;DHT22;3657;49.630;11.018;2023-06-10T06:28:04;22.90;74.30
7232;DHT22;3657;49.630;11.018;2023-06-10T06:30:32;23.10;74.60
7232;DHT22;3657;49.630;11.018;2023-06-10T06:32:59;23.10;75.70
7232;DHT22;3657;49.630;11.018;2023-06-10T06:35:25;23.20;75.40
7232;DHT22;3657;49.630;11.018;2023-06-10T06:37:52;23.40;76.10
7232;DHT22;3657;49.630;11.018;2023-06-10T06:40:19;23.50;75.50
7232;DHT22;3657;49.630;11.018;2023-06-10T06:42:47;23.70;75.70
7232;DHT22;3657;49.630;11.018;2023-06-10T06:45:14;23.90;76.00
7232;DHT22;3657;49.630;11.018;2023-06-10T06:47:42;24.10;75.40
7232;DHT22;3657;49.630;11.018;2023-06-10T06:50:09;24.30;76.50
7232;DHT22;3657;49.630;11.018;2023-06-10T06:52:36;24.50;75.70
7232;DHT22;3657;49.630;11.018;2023-06-10T06:55:03;24.50;74.80
7232;DHT22;3657;49.630;11.018;2023-06-10T06:57:30;24.60;75.50
7232;DHT22;3657;49.630;11.018;2023-06-10T06:59:57;24.70;75.50
7232;DHT22;3657;49.630;11.018;2023-06-10T07:02:23;24.90;75.00
7232;DHT22;3657;49.630;11.018;2023-06-10T07:04:51;25.00;74.20
7232;DHT22;3657;49.630;11.018;2023-06-10T07:07:20;24.90;73.50
7232;DHT22;3657;49.630;11.018;2023-06-10T07:09:47;25.10;74.70
7232;DHT22;3657;49.630;11.018;2023-06-10T07:12:14;25.30;73.30
7232;DHT22;3657;49.630;11.018;2023-06-10T07:14:41;25.40;75.40
7232;DHT22;3657;49.630;11.018;2023-06-10T07:17:07;25.60;74.40
7232;DHT22;3657;49.630;11.018;2023-06-10T07:19:34;25.70;73.80
7232;DHT22;3657;49.630;11.018;2023-06-10T07:22:02;25.90;74.70
7232;DHT22;3657;49.630;11.018;2023-06-10T07:24:29;25.70;74.70
7232;DHT22;3657;49.630;11.018;2023-06-10T07:26:56;26.00;73.80
7232;DHT22;3657;49.630;11.018;2023-06-10T07:29:22;26.20;74.90
7232;DHT22;3657;49.630;11.018;2023-06-10T07:32:16;26.40;74.10
7232;DHT22;3657;49.630;11.018;2023-06-10T07:34:43;26.50;74.40
7232;DHT22;3657;49.630;11.018;2023-06-10T07:37:11;26.60;75.20
7232;DHT22;3657;49.630;11.018;2023-06-10T07:39:38;26.80;73.90
7232;DHT22;3657;49.630;11.018;2023-06-10T07:42:05;27.10;73.60
7232;DHT22;3657;49.630;11.018;2023-06-10T07:44:32;27.20;73.50
7232;DHT22;3657;49.630;11.018;2023-06-10T07:46:59;27.40;74.10
7232;DHT22;3657;49.630;11.018;2023-06-10T07:49:25;27.50;70.90
7232;DHT22;3657;49.630;11.018;2023-06-10T07:51:54;27.60;68.30
7232;DHT22;3657;49.630;11.018;2023-06-10T07:54:22;27.30;67.80
7232;DHT22;3657;49.630;11.018;2023-06-10T07:56:49;27.40;68.20
7232;DHT22;3657;49.630;11.018;2023-06-10T07:59:17;27.30;69.30
7232;DHT22;3657;49.630;11.018;2023-06-10T08:01:44;27.60;72.00
7232;DHT22;3657;49.630;11.018;2023-06-10T08:04:11;27.70;71.70
7232;DHT22;3657;49.630;11.018;2023-06-10T08:06:38;28.00;71.10
7232;DHT22;3657;49.630;11.018;2023-06-10T08:09:05;28.10;71.00
7232;DHT22;3657;49.630;11.018;2023-06-10T08:11:33;28.30;68.10
7232;DHT22;3657;49.630;11.018;2023-06-10T08:13:59;28.30;68.20
7232;DHT22;3657;49.630;11.018;2023-06-10T08:16:26;28.40;69.90
7232;DHT22;3657;49.630;11.018;2023-06-10T08:18:53;28.60;67.80
7232;DHT22;3657;49.630;11.018;2023-06-10T08:21:20;28.90;67.60
7232;DHT22;3657;49.630;11.018;2023-06-10T08:23:46;29.00;67.30
7232;DHT22;3657;49.630;11.018;2023-06-10T08:26:13;29.30;71.70
7232;DHT22;3657;49.630;11.018;2023-06-10T08:28:41;28.90;63.40
7232;DHT22;3657;49.630;11.018;2023-06-10T08:31:08;28.40;67.50
7232;DHT22;3657;49.630;11.018;2023-06-10T08:33:34;29.00;68.70
7232;DHT22;3657;49.630;11.018;2023-06-10T08:36:01;29.20;67.50
7232;DHT22;3657;49.630;11.018;2023-06-10T08:38:28;29.40;66.20
7232;DHT22;3657;49.630;11.018;2023-06-10T08:40:56;29.70;70.00
7232;DHT22;3657;49.630;11.018;2023-06-10T08:43:31;29.80;68.90
7232;DHT22;3657;49.630;11.018;2023-06-10T08:46:01;30.10;71.30
7232;DHT22;3657;49.630;11.018;2023-06-10T08:48:29;30.40;67.70
7232;DHT22;3657;49.630;11.018;2023-06-10T08:50:57;30.20;63.50
7232;DHT22;3657;49.630;11.018;2023-06-10T08:53:24;30.40;68.30
7232;DHT22;3657;49.630;11.018;2023-06-10T08:55:53;30.70;69.40
7232;DHT22;3657;49.630;11.018;2023-06-10T08:58:20;30.40;64.20
7232;DHT22;3657;49.630;11.018;2023-06-10T09:00:47;30.10;68.30
7232;DHT22;3657;49.630;11.018;2023-06-10T09:03:15;30.20;70.60
7232;DHT22;3657;49.630;11.018;2023-06-10T09:05:43;30.60;71.20
7232;DHT22;3657;49.630;11.018;2023-06-10T09:08:10;31.00;70.10
7232;DHT22;3657;49.630;11.018;2023-06-10T09:10:38;31.00;64.60
7232;DHT22;3657;49.630;11.018;2023-06-10T09:13:04;30.70;61.60
7232;DHT22;3657;49.630;11.018;2023-06-10T09:15:31;30.50;65.10
7232;DHT22;3657;49.630;11.018;2023-06-10T09:17:59;30.60;64.80
7232;DHT22;3657;49.630;11.018;2023-06-10T09:20:27;30.40;59.40
7232;DHT22;3657;49.630;11.018;2023-06-10T09:22:54;30.60;64.30
7232;DHT22;3657;49.630;11.018;2023-06-10T09:25:34;29.70;61.00
7232;DHT22;3657;49.630;11.018;2023-06-10T09:28:01;29.00;61.90
7232;DHT22;3657;49.630;11.018;2023-06-10T09:30:29;29.30;62.40
7232;DHT22;3657;49.630;11.018;2023-06-10T09:32:57;30.00;69.40
7232;DHT22;3657;49.630;11.018;2023-06-10T09:35:24;30.50;64.40
7232;DHT22;3657;49.630;11.018;2023-06-10T09:37:53;30.60;62.00
7232;DHT22;3657;49.630;11.018;2023-06-10T09:40:20;30.40;63.60
7232;DHT22;3657;49.630;11.018;2023-06-10T09:42:52;29.80;61.40
7232;DHT22;3657;49.630;11.018;2023-06-10T09:45:20;29.90;61.00
7232;DHT22;3657;49.630;11.018;2023-06-10T09:47:47;30.20;63.30
7232;DHT22;3657;49.630;11.018;2023-06-10T09:50:17;29.80;62.70
7232;DHT22;3657;49.630;11.018;2023-06-10T09:52:46;28.50;62.10
7232;DHT22;3657;49.630;11.018;2023-06-10T09:55:14;28.30;67.20
7232;DHT22;3657;49.630;11.018;2023-06-10T09:57:41;28.00;68.80
7232;DHT22;3657;49.630;11.018;2023-06-10T10:00:12;28.20;64.70
7232;DHT22;3657;49.630;11.018;2023-06-10T10:02:45;27.90;69.20
7232;DHT22;3657;49.630;11.018;2023-06-10T10:05:13;28.30;69.70
7232;DHT22;3657;49.630;11.018;2023-06-10T10:07:40;28.60;66.80
7232;DHT22;3657;49.630;11.018;2023-06-10T10:10:07;28.80;66.50
7232;DHT22;3657;49.630;11.018;2023-06-10T10:12:36;28.90;63.40
7232;DHT22;3657;49.630;11.018;2023-06-10T10:15:06;29.00;63.10
7232;DHT22;3657;49.630;11.018;2023-06-10T10:17:34;29.10;64.10
7232;DHT22;3657;49.630;11.018;2023-06-10T10:20:03;29.60;65.10
7232;DHT22;3657;49.630;11.018;2023-06-10T10:22:35;29.30;61.80
7232;DHT22;3657;49.630;11.018;2023-06-10T10:25:05;29.10;61.20
7232;DHT22;3657;49.630;11.018;2023-06-10T10:27:35;28.70;65.30
7232;DHT22;3657;49.630;11.018;2023-06-10T10:30:03;29.00;66.80
7232;DHT22;3657;49.630;11.018;2023-06-10T10:32:37;28.80;64.60
7232;DHT22;3657;49.630;11.018;2023-06-10T10:35:09;28.50;63.50
7232;DHT22;3657;49.630;11.018;2023-06-10T10:37:39;28.30;65.70
7232;DHT22;3657;49.630;11.018;2023-06-10T10:40:07;28.50;63.50
7232;DHT22;3657;49.630;11.018;2023-06-10T10:42:37;29.00;67.10
7232;DHT22;3657;49.630;11.018;2023-06-10T10:45:06;29.60;63.80
7232;DHT22;3657;49.630;11.018;2023-06-10T10:47:33;29.30;65.30
7232;DHT22;3657;49.630;11.018;2023-06-10T10:50:01;29.20;65.90
7232;DHT22;3657;49.630;11.018;2023-06-10T10:52:48;28.70;65.20
7232;DHT22;3657;49.630;11.018;2023-06-10T10:55:17;28.30;63.90
7232;DHT22;3657;49.630;11.018;2023-06-10T10:57:53;28.70;64.70
7232;DHT22;3657;49.630;11.018;2023-06-10T11:00:28;28.80;65.60
7232;DHT22;3657;49.630;11.018;2023-06-10T11:02:58;29.10;64.20
7232;DHT22;3657;49.630;11.018;2023-06-10T11:05:36;29.50;65.20
7232;DHT22;3657;49.630;11.018;2023-06-10T11:08:03;29.60;64.20
7232;DHT22;3657;49.630;11.018;2023-06-10T11:10:31;29.20;61.90
7232;DHT22;3657;49.630;11.018;2023-06-10T11:13:00;29.10;69.00
7232;DHT22;3657;49.630;11.018;2023-06-10T11:15:28;29.40;68.30
7232;DHT22;3657;49.630;11.018;2023-06-10T11:18:12;29.50;62.80
7232;DHT22;3657;49.630;11.018;2023-06-10T11:20:58;29.90;64.50
7232;DHT22;3657;49.630;11.018;2023-06-10T11:23:40;30.40;63.30
7232;DHT22;3657;49.630;11.018;2023-06-10T11:26:14;30.30;61.10
7232;DHT22;3657;49.630;11.018;2023-06-10T11:29:07;30.30;60.40
7232;DHT22;3657;49.630;11.018;2023-06-10T11:31:42;30.60;63.10
7232;DHT22;3657;49.630;11.018;2023-06-10T11:34:11;30.90;63.40
7232;DHT22;3657;49.630;11.018;2023-06-10T11:36:39;30.90;63.00
7232;DHT22;3657;49.630;11.018;2023-06-10T11:39:09;31.00;62.90
7232;DHT22;3657;49.630;11.018;2023-06-10T11:41:37;30.60;61.50
7232;DHT22;3657;49.630;11.018;2023-06-10T11:44:09;29.90;60.70
7232;DHT22;3657;49.630;11.018;2023-06-10T11:46:36;29.80;63.60
7232;DHT22;3657;49.630;11.018;2023-06-10T11:49:04;29.80;63.40
7232;DHT22;3657;49.630;11.018;2023-06-10T11:51:33;29.80;62.90
7232;DHT22;3657;49.630;11.018;2023-06-10T11:54:00;30.00;63.80
7232;DHT22;3657;49.630;11.018;2023-06-10T11:56:29;30.20;62.50
7232;DHT22;3657;49.630;11.018;2023-06-10T11:58:57;30.20;63.30
7232;DHT22;3657;49.630;11.018;2023-06-10T12:01:26;30.10;64.00
7232;DHT22;3657;49.630;11.018;2023-06-10T12:03:57;29.70;63.20
7232;DHT22;3657;49.630;11.018;2023-06-10T12:06:24;29.80;64.80
7232;DHT22;3657;49.630;11.018;2023-06-10T12:08:51;29.70;64.00
7232;DHT22;3657;49.630;11.018;2023-06-10T12:11:18;29.80;64.90
7232;DHT22;3657;49.630;11.018;2023-06-10T12:13:49;30.20;63.00
7232;DHT22;3657;49.630;11.018;2023-06-10T12:16:17;30.30;63.30
7232;DHT22;3657;49.630;11.018;2023-06-10T12:18:46;30.60;63.80
7232;DHT22;3657;49.630;11.018;2023-06-10T12:21:18;30.60;63.60
7232;DHT22;3657;49.630;11.018;2023-06-10T12:24:08;30.20;61.30
7232;DHT22;3657;49.630;11.018;2023-06-10T12:26:36;29.80;63.70
7232;DHT22;3657;49.630;11.018;2023-06-10T12:29:15;29.80;63.60
7232;DHT22;3657;49.630;11.018;2023-06-10T12:31:54;29.70;63.00
7232;DHT22;3657;49.630;11.018;2023-06-10T12:34:29;29.70;63.40
7232;DHT22;3657;49.630;11.018;2023-06-10T12:36:56;29.70;63.40
7232;DHT22;3657;49.630;11.018;2023-06-10T12:39:23;29.60;63.50
7232;DHT22;3657;49.630;11.018;2023-06-10T12:41:51;29.70;62.80
7232;DHT22;3657;49.630;11.018;2023-06-10T12:44:18;29.90;66.10
7232;DHT22;3657;49.630;11.018;2023-06-10T12:46:44;30.10;60.20
7232;DHT22;3657;49.630;11.018;2023-06-10T12:49:19;30.40;64.60
7232;DHT22;3657;49.630;11.018;2023-06-10T12:51:48;30.60;61.30
7232;DHT22;3657;49.630;11.018;2023-06-10T12:54:14;30.60;63.40
7232;DHT22;3657;49.630;11.018;2023-06-10T12:56:41;30.90;64.70
7232;DHT22;3657;49.630;11.018;2023-06-10T12:59:08;31.30;64.70
7232;DHT22;3657;49.630;11.018;2023-06-10T13:01:34;31.60;63.50
7232;DHT22;3657;49.630;11.018;2023-06-10T13:04:01;31.60;62.40
7232;DHT22;3657;49.630;11.018;2023-06-10T13:06:28;31.30;59.40
7232;DHT22;3657;49.630;11.018;2023-06-10T13:08:56;31.50;62.30
7232;DHT22;3657;49.630;11.018;2023-06-10T13:11:22;31.20;62.30
7232;DHT22;3657;49.630;11.018;2023-06-10T13:13:51;31.00;61.30
7232;DHT22;3657;49.630;11.018;2023-06-10T13:16:17;30.80;61.80
7232;DHT22;3657;49.630;11.018;2023-06-10T13:18:44;31.00;61.80
7232;DHT22;3657;49.630;11.018;2023-06-10T13:21:11;31.20;61.40
7232;DHT22;3657;49.630;11.018;2023-06-10T13:23:38;31.00;60.70
7232;DHT22;3657;49.630;11.018;2023-06-10T13:26:06;31.00;59.70
7232;DHT22;3657;49.630;11.018;2023-06-10T13:28:32;30.90;58.90
7232;DHT22;3657;49.630;11.018;2023-06-10T13:30:59;30.70;60.90
7232;DHT22;3657;49.630;11.018;2023-06-10T13:33:26;30.60;61.10
7232;DHT22;3657;49.630;11.018;2023-06-10T13:35:52;30.60;61.80
7232;DHT22;3657;49.630;11.018;2023-06-10T13:38:19;30.90;62.00
7232;DHT22;3657;49.630;11.018;2023-06-10T13:40:46;30.70;59.70
7232;DHT22;3657;49.630;11.018;2023-06-10T13:43:14;30.70;61.10
7232;DHT22;3657;49.630;11.018;2023-06-10T13:45:40;30.90;59.80
7232;DHT22;3657;49.630;11.018;2023-06-10T13:48:07;30.70;57.80
7232;DHT22;3657;49.630;11.018;2023-06-10T13:50:34;30.70;58.70
7232;DHT22;3657;49.630;11.018;2023-06-10T13:53:01;30.70;59.60
7232;DHT22;3657;49.630;11.018;2023-06-10T13:55:27;30.70;58.70
7232;DHT22;3657;49.630;11.018;2023-06-10T13:57:54;30.90;58.00
7232;DHT22;3657;49.630;11.018;2023-06-10T14:00:22;30.90;58.80
7232;DHT22;3657;49.630;11.018;2023-06-10T14:02:49;30.60;58.70
7232;DHT22;3657;49.630;11.018;2023-06-10T14:05:16;30.60;58.60
7232;DHT22;3657;49.630;11.018;2023-06-10T14:07:42;30.50;59.90
7232;DHT22;3657;49.630;11.018;2023-06-10T14:10:09;30.80;60.40
7232;DHT22;3657;49.630;11.018;2023-06-10T14:12:36;31.10;58.10
7232;DHT22;3657;49.630;11.018;2023-06-10T14:15:03;30.90;59.90
7232;DHT22;3657;49.630;11.018;2023-06-10T14:17:32;31.10;59.60
7232;DHT22;3657;49.630;11.018;2023-06-10T14:19:58;31.00;58.50
7232;DHT22;3657;49.630;11.018;2023-06-10T14:22:25;31.00;59.00
7232;DHT22;3657;49.630;11.018;2023-06-10T14:24:52;31.20;59.60
7232;DHT22;3657;49.630;11.018;2023-06-10T14:27:18;31.20;58.20
7232;DHT22;3657;49.630;11.018;2023-06-10T14:29:45;30.90;59.40
7232;DHT22;3657;49.630;11.018;2023-06-10T14:32:12;30.60;57.60
7232;DHT22;3657;49.630;11.018;2023-06-10T14:34:40;30.00;57.10
7232;DHT22;3657;49.630;11.018;2023-06-10T14:37:07;30.00;59.70
7232;DHT22;3657;49.630;11.018;2023-06-10T14:39:34;30.20;57.30
7232;DHT22;3657;49.630;11.018;2023-06-10T14:42:01;30.20;59.20
7232;DHT22;3657;49.630;11.018;2023-06-10T14:44:28;30.40;59.80
7232;DHT22;3657;49.630;11.018;2023-06-10T14:46:54;30.40;59.60
7232;DHT22;3657;49.630;11.018;2023-06-10T14:49:21;30.60;59.60
7232;DHT22;3657;49.630;11.018;2023-06-10T14:51:49;30.70;59.90
7232;DHT22;3657;49.630;11.018;2023-06-10T14:54:16;31.00;59.60
7232;DHT22;3657;49.630;11.018;2023-06-10T14:56:42;31.00;59.50
7232;DHT22;3657;49.630;11.018;2023-06-10T14:59:09;31.00;59.70
7232;DHT22;3657;49.630;11.018;2023-06-10T15:01:36;31.00;60.00
7232;DHT22;3657;49.630;11.018;2023-06-10T15:04:03;31.00;60.20
7232;DHT22;3657;49.630;11.018;2023-06-10T15:06:30;31.10;60.40
7232;DHT22;3657;49.630;11.018;2023-06-10T15:08:58;31.20;60.00
7232;DHT22;3657;49.630;11.018;2023-06-10T15:11:24;31.30;60.40
7232;DHT22;3657;49.630;11.018;2023-06-10T15:13:51;31.10;60.40
7232;DHT22;3657;49.630;11.018;2023-06-10T15:16:18;31.20;60.80
7232;DHT22;3657;49.630;11.018;2023-06-10T15:18:44;31.10;61.00
7232;DHT22;3657;49.630;11.018;2023-06-10T15:21:11;30.90;61.50
7232;DHT22;3657;49.630;11.018;2023-06-10T15:23:38;30.50;61.80
7232;DHT22;3657;49.630;11.018;2023-06-10T15:26:06;30.60;62.00
7232;DHT22;3657;49.630;11.018;2023-06-10T15:28:33;30.70;61.20
7232;DHT22;3657;49.630;11.018;2023-06-10T15:30:59;30.40;61.80
7232;DHT22;3657;49.630;11.018;2023-06-10T15:33:26;30.10;62.30
7232;DHT22;3657;49.630;11.018;2023-06-10T15:35:53;30.10;62.60
7232;DHT22;3657;49.630;11.018;2023-06-10T15:38:19;29.90;62.90
7232;DHT22;3657;49.630;11.018;2023-06-10T15:40:46;29.90;62.80
7232;DHT22;3657;49.630;11.018;2023-06-10T15:43:14;29.90;62.90
7232;DHT22;3657;49.630;11.018;2023-06-10T15:45:41;29.90;63.10
7232;DHT22;3657;49.630;11.018;2023-06-10T15:48:07;29.90;63.10
7232;DHT22;3657;49.630;11.018;2023-06-10T15:50:34;29.90;63.40